首页
METAR-TAF:

METAR-TAF

机场 :

堪薩斯城, 密蘇里州, 美国

纬度: 39-17-50N, 经度: 094-43-50W, 海拔: 312米

当前天气观测

该预报发布于16分钟前的03:53 UTC
风速6节,风向西
温度 17°C
湿度 94%
气压 1011 hPa
能見度: 16.1公里
散云层高于15000英尺

METAR: KMCI 230353Z 26006KT 10SM SCT150 17/16 A2986 RMK AO2 PRESRR SLP105 T01720161

时间: 23:09 (04:09 UTC)

预报

该预报发布于4小时和39分钟前的23:30 UTC
预报有效从23日的 00点(UTC)到 23日的 24点(UTC)
风速4节,风向西北
能見度: 10公里
散云层高于2500英尺
多云层高于5000英尺
短暂存在
从 23日的 00点(UTC)到 23日的 01点(UTC)
多云层高于1900英尺
从 23日的 0800点(UTC)
风速3节,风向多变
能見度: 10公里
散云层高于3500英尺
多云层高于14000英尺
从 23日的 1600点(UTC)
风速4节,风向东南
能見度: 10公里
多云层高于4000英尺

TAF: KMCI 222330Z 2300/2324 31004KT P6SM SCT025 BKN050 TEMPO 2300/2301 BKN019 FM230800 VRB03KT P6SM SCT035 BKN140 FM231600 14004KT P6SM BKN040

超过4000个机场的气象观测和天气预报(METAR&TAF报告)。

可查询的气象台以黄色和红色小点在地图上表示。

将鼠标移到小点上方,可查看气象台名称。

然后点击查看天气观测和预报。

如需切换地图:点击带黑十字的绿色按钮放大地图;点击带横线的绿色按钮缩小地图;或者点击绿色箭头查看邻近地区的地图。


METAR-TAF: